createdAt,value
2017-02-23T00:00:23.912Z,948.35
2017-02-23T00:01:34.629Z,948.41
2017-02-23T00:02:45.340Z,948.42
2017-02-23T00:03:55.637Z,948.41
2017-02-23T00:05:06.359Z,948.41
2017-02-23T00:06:17.067Z,948.41
2017-02-23T00:07:27.760Z,948.48
2017-02-23T00:08:38.461Z,948.5
2017-02-23T00:09:49.180Z,948.53
2017-02-23T00:11:01.870Z,948.55
2017-02-23T00:12:12.180Z,948.58
2017-02-23T00:13:22.881Z,948.66
2017-02-23T00:14:33.597Z,948.65
2017-02-23T00:15:44.292Z,948.69
2017-02-23T00:16:54.997Z,948.65
2017-02-23T00:18:05.705Z,948.7
2017-02-23T00:19:16.000Z,948.66
2017-02-23T00:20:26.691Z,948.63
2017-02-23T00:21:37.397Z,948.63
2017-02-23T00:22:48.099Z,948.6
2017-02-23T00:23:58.798Z,948.63
2017-02-23T00:25:09.102Z,948.67
2017-02-23T00:26:19.800Z,948.69
2017-02-23T00:27:30.521Z,948.81
2017-02-23T00:28:41.230Z,948.88
2017-02-23T00:29:51.917Z,949
2017-02-23T00:31:02.615Z,949.05
2017-02-23T00:32:12.518Z,949.07
2017-02-23T00:33:22.827Z,949.08
2017-02-23T00:34:33.530Z,949.08
2017-02-23T00:35:44.225Z,949.12
2017-02-23T00:36:54.914Z,949.18
2017-02-23T00:38:05.249Z,949.18
2017-02-23T00:39:15.568Z,949.22
2017-02-23T00:40:26.370Z,949.24
2017-02-23T00:41:37.085Z,949.27
2017-02-23T00:42:47.769Z,949.26
2017-02-23T00:43:58.081Z,949.3
2017-02-23T00:45:08.777Z,949.33
2017-02-23T00:46:19.469Z,949.29
2017-02-23T00:47:30.170Z,949.34
2017-02-23T00:48:40.859Z,949.35
2017-02-23T00:49:50.760Z,949.42
2017-02-23T00:51:01.453Z,949.5
2017-02-23T00:52:11.750Z,949.51
2017-02-23T00:53:22.444Z,949.56
2017-02-23T00:54:33.174Z,949.5
2017-02-23T00:55:43.886Z,949.43
2017-02-23T00:56:54.191Z,949.45
2017-02-23T00:58:04.898Z,949.5
2017-02-23T00:59:15.584Z,949.44
2017-02-23T01:00:26.279Z,949.54
2017-02-23T01:01:36.992Z,949.55
2017-02-23T01:02:47.708Z,949.58
2017-02-23T01:03:58.404Z,949.6
2017-02-23T01:05:09.118Z,949.61
2017-02-23T01:06:19.415Z,949.59
2017-02-23T01:07:30.118Z,949.62
2017-02-23T01:08:40.820Z,949.59
2017-02-23T01:09:51.506Z,949.57
2017-02-23T01:11:02.189Z,949.62
2017-02-23T01:12:12.895Z,949.68
2017-02-23T01:13:23.212Z,949.68
2017-02-23T01:14:33.917Z,949.66
2017-02-23T01:15:44.615Z,949.73
2017-02-23T01:16:55.312Z,949.75
2017-02-23T01:18:05.610Z,949.72
2017-02-23T01:19:15.915Z,949.74
2017-02-23T01:20:26.624Z,949.77
2017-02-23T01:21:37.320Z,949.84
2017-02-23T01:22:48.031Z,949.85
2017-02-23T01:23:58.728Z,949.9
2017-02-23T01:25:09.419Z,949.86
2017-02-23T01:26:20.127Z,949.86
2017-02-23T01:27:30.820Z,949.87
2017-02-23T01:28:41.506Z,949.84
2017-02-23T01:29:52.209Z,949.9
2017-02-23T01:31:02.927Z,949.93
2017-02-23T01:32:13.267Z,949.98
2017-02-23T01:33:23.579Z,950.03
2017-02-23T01:34:34.274Z,950.09
2017-02-23T01:35:44.989Z,950.12
2017-02-23T01:36:55.701Z,950.14
2017-02-23T01:38:05.998Z,950.22
2017-02-23T01:39:16.701Z,950.19
2017-02-23T01:40:27.417Z,950.15
2017-02-23T01:41:38.129Z,950.08
2017-02-23T01:42:48.456Z,950.15
2017-02-23T01:43:59.161Z,950.11
2017-02-23T01:45:09.485Z,950.18
2017-02-23T01:46:18.995Z,950.23
2017-02-23T01:47:29.708Z,950.27
2017-02-23T01:48:40.419Z,950.36
2017-02-23T01:49:50.724Z,950.35
2017-02-23T01:51:01.424Z,950.44
2017-02-23T01:52:11.760Z,950.42
2017-02-23T01:53:22.060Z,950.46
2017-02-23T01:54:32.759Z,950.44
2017-02-23T01:55:43.454Z,950.52
2017-02-23T01:56:54.152Z,950.59
2017-02-23T01:58:04.879Z,950.62
2017-02-23T01:59:15.580Z,950.59
2017-02-23T02:00:26.285Z,950.66
2017-02-23T02:01:36.970Z,950.66
2017-02-23T02:02:46.886Z,950.63
2017-02-23T02:03:57.595Z,950.68
2017-02-23T02:05:07.904Z,950.74
2017-02-23T02:06:18.608Z,950.75
2017-02-23T02:07:29.159Z,950.78
2017-02-23T02:08:39.858Z,950.87
2017-02-23T02:09:50.554Z,950.93
2017-02-23T02:11:00.878Z,950.94
2017-02-23T02:12:11.604Z,950.97
2017-02-23T02:13:22.299Z,950.97
2017-02-23T02:14:33.036Z,951
2017-02-23T02:15:43.735Z,950.97
2017-02-23T02:16:54.438Z,951.02
2017-02-23T02:18:04.735Z,951.09
2017-02-23T02:19:15.037Z,951.16
2017-02-23T02:20:25.745Z,951.15
2017-02-23T02:21:36.443Z,951.27
2017-02-23T02:22:47.143Z,951.26
2017-02-23T02:23:57.843Z,951.25
2017-02-23T02:25:08.542Z,951.23
2017-02-23T02:26:18.853Z,951.31
2017-02-23T02:27:29.585Z,951.34
2017-02-23T02:28:40.285Z,951.32
2017-02-23T02:29:50.591Z,951.33
2017-02-23T02:31:01.297Z,951.23
2017-02-23T02:32:12.004Z,951.24
2017-02-23T02:33:22.707Z,951.31
2017-02-23T02:34:33.424Z,951.35
2017-02-23T02:35:44.125Z,951.36
2017-02-23T02:36:54.821Z,951.35
2017-02-23T02:38:05.514Z,951.47
2017-02-23T02:40:58.208Z,951.47
2017-02-23T02:42:08.502Z,951.45
2017-02-23T02:43:19.223Z,951.52
2017-02-23T02:44:29.940Z,951.49
2017-02-23T02:45:40.637Z,951.49
2017-02-23T02:46:50.939Z,951.5
2017-02-23T02:48:01.629Z,951.52
2017-02-23T02:49:11.530Z,951.48
2017-02-23T02:50:21.821Z,951.57
2017-02-23T02:51:32.520Z,951.52
2017-02-23T02:52:43.233Z,951.51
2017-02-23T02:53:53.932Z,951.53
2017-02-23T02:55:04.658Z,951.53
2017-02-23T02:56:14.577Z,951.55
2017-02-23T02:57:25.269Z,951.6
2017-02-23T02:58:35.970Z,951.67
2017-02-23T02:59:46.662Z,951.7
2017-02-23T03:00:57.364Z,951.71
2017-02-23T03:02:08.058Z,951.74
2017-02-23T03:03:17.969Z,951.82
2017-02-23T03:04:28.678Z,951.83
2017-02-23T03:05:39.381Z,951.9
2017-02-23T03:06:50.221Z,951.93
2017-02-23T03:08:00.538Z,951.96
2017-02-23T03:09:10.873Z,951.98
2017-02-23T03:10:21.180Z,951.97
2017-02-23T03:11:31.900Z,952.06
2017-02-23T03:12:42.598Z,952.05
2017-02-23T03:13:52.914Z,952.1
2017-02-23T03:15:03.621Z,952.08
2017-02-23T03:16:13.926Z,952.19
2017-02-23T03:17:24.625Z,952.19
2017-02-23T03:18:35.318Z,952.24
2017-02-23T03:19:45.703Z,952.3
2017-02-23T03:20:55.997Z,952.31
2017-02-23T03:22:06.729Z,952.36
2017-02-23T03:23:17.454Z,952.38
2017-02-23T03:24:28.147Z,952.33
2017-02-23T03:25:38.833Z,952.46
2017-02-23T03:26:49.530Z,952.5
2017-02-23T03:28:00.251Z,952.5
2017-02-23T03:29:10.552Z,952.46
2017-02-23T03:30:20.868Z,952.45
2017-02-23T03:31:31.554Z,952.48
2017-02-23T03:32:42.237Z,952.52
2017-02-23T03:33:52.955Z,952.63
2017-02-23T03:35:03.675Z,952.7
2017-02-23T03:36:13.183Z,952.75
2017-02-23T03:37:23.872Z,952.82
2017-02-23T03:38:34.594Z,952.88
2017-02-23T03:39:45.281Z,952.93
2017-02-23T03:40:55.963Z,952.93
2017-02-23T03:42:06.665Z,953.03
2017-02-23T03:43:17.370Z,953.03
2017-02-23T03:44:28.085Z,953.06
2017-02-23T03:45:38.801Z,953.06
2017-02-23T03:46:49.098Z,953.13
2017-02-23T03:47:59.794Z,953.21
2017-02-23T03:49:10.487Z,953.21
2017-02-23T03:50:20.379Z,953.18
2017-02-23T03:51:31.098Z,953.1
2017-02-23T03:52:41.852Z,953.19
2017-02-23T03:53:51.761Z,953.26
2017-02-23T03:55:02.464Z,953.33
2017-02-23T03:56:12.753Z,953.36
2017-02-23T03:57:23.057Z,953.34
2017-02-23T03:58:33.766Z,953.38
2017-02-23T03:59:44.474Z,953.42
2017-02-23T04:00:55.177Z,953.46
2017-02-23T04:02:05.494Z,953.51
2017-02-23T04:03:15.783Z,953.54
2017-02-23T04:04:26.094Z,953.62
2017-02-23T04:05:36.785Z,953.57
2017-02-23T04:06:47.094Z,953.5
2017-02-23T04:07:57.798Z,953.43
2017-02-23T04:09:08.101Z,953.44
2017-02-23T04:10:18.418Z,953.49
2017-02-23T04:11:29.131Z,953.5
2017-02-23T04:12:39.824Z,953.47
2017-02-23T04:13:50.535Z,953.5
2017-02-23T04:15:01.229Z,953.54
2017-02-23T04:16:11.929Z,953.57
2017-02-23T04:17:21.438Z,953.61
2017-02-23T04:18:32.148Z,953.59
2017-02-23T04:19:42.869Z,953.58
2017-02-23T04:20:53.565Z,953.58
2017-02-23T04:22:04.281Z,953.58
2017-02-23T04:23:14.968Z,953.63
2017-02-23T04:24:25.653Z,953.7
2017-02-23T04:25:36.354Z,953.67
2017-02-23T04:26:47.056Z,953.71
2017-02-23T04:27:57.364Z,953.81
2017-02-23T04:29:08.055Z,953.74
2017-02-23T04:30:18.379Z,953.69
2017-02-23T04:31:28.698Z,953.8
2017-02-23T04:32:39.395Z,953.82
2017-02-23T04:33:49.717Z,953.82
2017-02-23T04:35:00.424Z,953.81
2017-02-23T04:36:10.743Z,953.79
2017-02-23T04:37:21.086Z,953.83
2017-02-23T04:38:31.809Z,953.83
2017-02-23T04:39:42.516Z,954.01
2017-02-23T04:40:52.814Z,954.05
2017-02-23T04:42:03.505Z,954.09
2017-02-23T04:43:13.800Z,954.06
2017-02-23T04:44:24.128Z,954
2017-02-23T04:45:34.830Z,954.08
2017-02-23T04:46:45.535Z,954.12
2017-02-23T04:47:56.237Z,954.21
2017-02-23T04:49:06.936Z,954.21
2017-02-23T04:50:17.633Z,954.41
2017-02-23T04:51:27.950Z,954.35
2017-02-23T04:52:38.649Z,954.46
2017-02-23T04:53:48.960Z,954.61
2017-02-23T04:54:59.644Z,954.64
2017-02-23T04:56:10.332Z,954.69
2017-02-23T04:57:21.041Z,954.72
2017-02-23T04:58:31.757Z,954.75
2017-02-23T04:59:42.072Z,954.74
2017-02-23T05:00:52.371Z,954.77
2017-02-23T05:02:03.055Z,954.8
2017-02-23T05:03:13.780Z,954.83
2017-02-23T05:04:24.465Z,954.87
2017-02-23T05:05:35.166Z,954.9
2017-02-23T05:06:45.472Z,954.96
2017-02-23T05:07:55.367Z,955.01
2017-02-23T05:09:06.078Z,955.07
2017-02-23T05:10:16.371Z,955.1
2017-02-23T05:11:26.660Z,955.1
2017-02-23T05:12:37.349Z,955.2
2017-02-23T05:13:48.076Z,955.24
2017-02-23T05:14:58.761Z,955.37
2017-02-23T05:16:09.465Z,955.44
2017-02-23T05:17:20.165Z,955.57
2017-02-23T05:18:30.846Z,955.56
2017-02-23T05:19:41.539Z,955.56
2017-02-23T05:20:52.264Z,955.63
2017-02-23T05:22:02.971Z,955.71
2017-02-23T05:23:12.469Z,955.8
2017-02-23T05:24:23.164Z,955.77
2017-02-23T05:25:33.869Z,955.81
2017-02-23T05:26:44.567Z,955.82
2017-02-23T05:27:55.257Z,955.79
2017-02-23T05:29:05.577Z,955.78
2017-02-23T05:30:16.267Z,955.72
2017-02-23T05:31:26.975Z,955.79
2017-02-23T05:32:37.679Z,955.81
2017-02-23T05:33:48.381Z,955.78
2017-02-23T05:34:59.093Z,955.84
2017-02-23T05:36:09.798Z,955.8
2017-02-23T05:37:20.105Z,955.85
2017-02-23T05:38:30.404Z,955.86
2017-02-23T05:39:41.472Z,955.89
2017-02-23T05:40:51.768Z,955.86
2017-02-23T05:42:02.484Z,955.87
2017-02-23T05:43:12.789Z,955.86
2017-02-23T05:44:23.506Z,955.98
2017-02-23T05:45:34.209Z,955.89
2017-02-23T05:46:44.509Z,955.92
2017-02-23T05:47:55.223Z,955.9
2017-02-23T05:49:05.513Z,955.88
2017-02-23T05:50:15.818Z,955.97
2017-02-23T05:51:26.515Z,955.95
2017-02-23T05:52:37.212Z,955.95
2017-02-23T05:53:47.911Z,955.99
2017-02-23T05:54:58.214Z,955.99
2017-02-23T05:56:08.927Z,955.99
2017-02-23T05:57:19.620Z,956
2017-02-23T05:58:30.319Z,956.03
2017-02-23T05:59:41.051Z,956.07
2017-02-23T06:00:51.740Z,956.08
2017-02-23T06:02:02.448Z,956.11
2017-02-23T06:03:13.150Z,956.13
2017-02-23T06:04:23.858Z,956.21
2017-02-23T06:05:34.572Z,956.25
2017-02-23T06:06:45.258Z,956.27
2017-02-23T06:07:55.167Z,956.25
2017-02-23T06:09:05.463Z,956.3
2017-02-23T06:10:16.157Z,956.26
2017-02-23T06:11:26.843Z,956.28
2017-02-23T06:12:37.540Z,956.3
2017-02-23T06:13:48.238Z,956.35
2017-02-23T06:14:58.954Z,956.41
2017-02-23T06:16:09.662Z,956.43
2017-02-23T06:17:20.355Z,956.48
2017-02-23T06:18:31.065Z,956.5
2017-02-23T06:19:41.779Z,956.52
2017-02-23T06:20:52.117Z,956.5
2017-02-23T06:22:02.830Z,956.56
2017-02-23T06:23:13.532Z,956.49
2017-02-23T06:24:23.841Z,956.57
2017-02-23T06:25:34.156Z,956.56
2017-02-23T06:26:44.465Z,956.52
2017-02-23T06:27:55.167Z,956.47
2017-02-23T06:29:05.500Z,956.53
2017-02-23T06:30:15.412Z,956.5
2017-02-23T06:31:26.136Z,956.45
2017-02-23T06:32:36.482Z,956.53
2017-02-23T06:33:47.195Z,956.49
2017-02-23T06:34:57.901Z,956.51
2017-02-23T06:36:08.603Z,956.54
2017-02-23T06:37:19.302Z,956.6
2017-02-23T06:38:29.993Z,956.58
2017-02-23T06:39:40.681Z,956.68
2017-02-23T06:40:51.383Z,956.72
2017-02-23T06:42:01.689Z,956.71
2017-02-23T06:43:12.387Z,956.73
2017-02-23T06:44:22.676Z,956.74
2017-02-23T06:45:33.365Z,956.67
2017-02-23T06:46:44.069Z,956.7
2017-02-23T06:47:54.795Z,956.75
2017-02-23T06:49:05.498Z,956.75
2017-02-23T06:50:16.182Z,956.69
2017-02-23T06:51:26.878Z,956.72
2017-02-23T06:52:37.187Z,956.71
2017-02-23T06:53:47.495Z,956.71
2017-02-23T06:54:57.797Z,956.72
2017-02-23T06:56:08.503Z,956.71
2017-02-23T06:57:18.005Z,956.72
2017-02-23T06:58:28.711Z,956.73
2017-02-23T06:59:39.414Z,956.75
2017-02-23T07:00:49.709Z,956.81
2017-02-23T07:02:00.406Z,956.8
2017-02-23T07:03:10.704Z,956.84
2017-02-23T07:04:20.997Z,956.86
2017-02-23T07:05:31.721Z,956.93
2017-02-23T07:06:42.031Z,956.89
2017-02-23T07:07:52.714Z,956.92
2017-02-23T07:09:03.028Z,956.94
2017-02-23T07:10:12.940Z,957
2017-02-23T07:11:23.630Z,957.05
2017-02-23T07:12:34.354Z,957.03
2017-02-23T07:13:45.076Z,956.97
2017-02-23T07:14:55.771Z,957.01
2017-02-23T07:16:06.063Z,957.01
2017-02-23T07:17:16.764Z,957.11
2017-02-23T07:18:27.469Z,957.05
2017-02-23T07:19:40.463Z,957.1
2017-02-23T07:20:51.154Z,957.16
2017-02-23T07:22:01.861Z,957.15
2017-02-23T07:23:12.171Z,957.1
2017-02-23T07:24:22.855Z,957.09
2017-02-23T07:25:33.556Z,957.09
2017-02-23T07:26:43.851Z,957.1
2017-02-23T07:27:54.156Z,957.13
2017-02-23T07:29:04.861Z,957.12
2017-02-23T07:30:15.551Z,957.18
2017-02-23T07:31:26.251Z,957.17
2017-02-23T07:32:36.177Z,957.21
2017-02-23T07:33:46.480Z,957.24
2017-02-23T07:34:57.182Z,957.28
2017-02-23T07:36:07.897Z,957.29
2017-02-23T07:37:18.188Z,957.29
2017-02-23T07:38:28.894Z,957.32
2017-02-23T07:39:39.609Z,957.34
2017-02-23T07:40:49.951Z,957.34
2017-02-23T07:42:00.662Z,957.4
2017-02-23T07:43:10.961Z,957.42
2017-02-23T07:44:21.671Z,957.5
2017-02-23T07:45:32.359Z,957.5
2017-02-23T07:46:42.671Z,957.55
2017-02-23T07:47:52.968Z,957.53
2017-02-23T07:49:03.695Z,957.52
2017-02-23T07:50:14.398Z,957.49
2017-02-23T07:51:24.699Z,957.51
2017-02-23T07:52:35.381Z,957.53
2017-02-23T07:53:46.091Z,957.53
2017-02-23T07:54:56.407Z,957.5
2017-02-23T07:56:07.112Z,957.48
2017-02-23T07:57:17.414Z,957.55
2017-02-23T07:58:28.109Z,957.51
2017-02-23T07:59:38.827Z,957.53
2017-02-23T08:00:49.538Z,957.52
2017-02-23T08:02:00.242Z,957.56
2017-02-23T08:03:10.562Z,957.57
2017-02-23T08:04:21.282Z,957.56
2017-02-23T08:05:31.974Z,957.56
2017-02-23T08:06:41.870Z,957.56
2017-02-23T08:07:52.564Z,957.61
2017-02-23T08:09:02.855Z,957.55
2017-02-23T08:10:13.153Z,957.54
2017-02-23T08:11:23.080Z,957.53
2017-02-23T08:12:33.384Z,957.54
2017-02-23T08:13:44.083Z,957.51
2017-02-23T08:14:54.775Z,957.52
2017-02-23T08:16:05.466Z,957.54
2017-02-23T08:17:15.391Z,957.55
2017-02-23T08:18:26.229Z,957.6
2017-02-23T08:19:36.938Z,957.59
2017-02-23T08:20:47.639Z,957.59
2017-02-23T08:21:58.345Z,957.57
2017-02-23T08:23:09.046Z,957.62
2017-02-23T08:24:19.349Z,957.58
2017-02-23T08:25:29.643Z,957.64
2017-02-23T08:26:39.947Z,957.58
2017-02-23T08:27:50.247Z,957.66
2017-02-23T08:29:00.962Z,957.69
2017-02-23T08:30:11.650Z,957.68
2017-02-23T08:31:21.970Z,957.68
2017-02-23T08:32:32.675Z,957.7
2017-02-23T08:33:43.374Z,957.73
2017-02-23T08:34:54.096Z,957.76
2017-02-23T08:36:04.824Z,957.74
2017-02-23T08:37:15.117Z,957.73
2017-02-23T08:38:25.831Z,957.73
2017-02-23T08:39:36.528Z,957.72
2017-02-23T08:40:46.822Z,957.71
2017-02-23T08:41:57.127Z,957.66
2017-02-23T08:43:07.834Z,957.64
2017-02-23T08:44:18.539Z,957.62
2017-02-23T08:45:29.242Z,957.64
2017-02-23T08:46:39.940Z,957.63
2017-02-23T08:47:50.648Z,957.63
2017-02-23T08:49:00.952Z,957.7
2017-02-23T08:50:11.655Z,957.71
2017-02-23T08:51:22.347Z,957.69
2017-02-23T08:52:33.065Z,957.71
2017-02-23T08:53:43.368Z,957.69
2017-02-23T08:54:54.064Z,957.68
2017-02-23T08:56:04.367Z,957.67
2017-02-23T08:57:14.279Z,957.67
2017-02-23T08:58:24.984Z,957.67
2017-02-23T08:59:35.687Z,957.72
2017-02-23T09:00:46.401Z,957.65
2017-02-23T09:01:57.144Z,957.68
2017-02-23T09:03:07.863Z,957.73
2017-02-23T09:04:17.378Z,957.68
2017-02-23T09:05:28.085Z,957.73
2017-02-23T09:06:38.388Z,957.77
2017-02-23T09:07:49.103Z,957.76
2017-02-23T09:08:59.792Z,957.83
2017-02-23T09:10:10.495Z,957.84
2017-02-23T09:11:21.208Z,957.84
2017-02-23T09:12:31.506Z,957.84
2017-02-23T09:13:42.220Z,957.86
2017-02-23T09:14:52.938Z,957.85
2017-02-23T09:16:03.247Z,957.86
2017-02-23T09:17:13.952Z,957.84
2017-02-23T09:18:24.671Z,957.88
2017-02-23T09:19:35.374Z,957.84
2017-02-23T09:20:46.073Z,957.83
2017-02-23T09:21:56.758Z,957.81
2017-02-23T09:23:07.468Z,957.84
2017-02-23T09:24:17.771Z,957.82
2017-02-23T09:25:28.486Z,957.8
2017-02-23T09:26:39.244Z,957.76
2017-02-23T09:27:49.945Z,957.76
2017-02-23T09:29:00.647Z,957.75
2017-02-23T09:30:11.352Z,957.76
2017-02-23T09:31:22.072Z,957.8
2017-02-23T09:32:32.383Z,957.82
2017-02-23T09:33:42.718Z,957.79
2017-02-23T09:34:53.435Z,957.88
2017-02-23T09:36:03.800Z,957.85
2017-02-23T09:37:14.494Z,957.8
2017-02-23T09:38:25.196Z,957.83
2017-02-23T09:39:35.907Z,957.83
2017-02-23T09:40:46.212Z,957.91
2017-02-23T09:41:56.525Z,957.91
2017-02-23T09:43:07.229Z,957.92
2017-02-23T09:44:17.936Z,958
2017-02-23T09:45:28.625Z,957.97
2017-02-23T09:46:39.318Z,957.99
2017-02-23T09:47:50.026Z,958
2017-02-23T09:49:00.742Z,957.96
2017-02-23T09:50:10.666Z,958.02
2017-02-23T09:51:21.362Z,958.03
2017-02-23T09:52:31.675Z,958.04
2017-02-23T09:53:41.988Z,958.02
2017-02-23T09:54:52.698Z,958.05
2017-02-23T09:56:03.412Z,958.03
2017-02-23T09:57:13.325Z,958.01
2017-02-23T09:58:23.630Z,958.04
2017-02-23T09:59:34.324Z,957.98
2017-02-23T10:00:45.027Z,957.96
2017-02-23T10:01:55.334Z,957.99
2017-02-23T10:03:05.685Z,958
2017-02-23T10:04:16.370Z,958.02
2017-02-23T10:05:27.061Z,958.02
2017-02-23T10:06:37.780Z,958.04
2017-02-23T10:07:48.467Z,958.09
2017-02-23T10:08:59.166Z,958.09
2017-02-23T10:10:09.858Z,958.09
2017-02-23T10:11:20.559Z,958.12
2017-02-23T10:12:31.253Z,958.01
2017-02-23T10:13:41.147Z,958.12
2017-02-23T10:14:51.847Z,958.1
2017-02-23T10:16:02.548Z,958.09
2017-02-23T10:17:13.258Z,958.07
2017-02-23T10:18:23.955Z,958.1
2017-02-23T10:19:34.651Z,958.05
2017-02-23T10:20:45.342Z,958.07
2017-02-23T10:21:56.043Z,958.1
2017-02-23T10:23:06.356Z,958.14
2017-02-23T10:24:17.056Z,958.11
2017-02-23T10:25:26.972Z,958.11
2017-02-23T10:26:37.673Z,958.11
2017-02-23T10:27:48.390Z,958.14
2017-02-23T10:28:59.080Z,958.14
2017-02-23T10:30:09.812Z,958.16
2017-02-23T10:31:20.520Z,958.1
2017-02-23T10:32:31.233Z,958.17
2017-02-23T10:33:41.935Z,958.14
2017-02-23T10:34:52.267Z,958.15
2017-02-23T10:36:02.960Z,958.16
2017-02-23T10:37:13.267Z,958.16
2017-02-23T10:38:23.964Z,958.16
2017-02-23T10:39:34.254Z,958.15
2017-02-23T10:40:44.968Z,958.16
2017-02-23T10:41:55.674Z,958.16
2017-02-23T10:43:06.391Z,958.14
2017-02-23T10:44:17.079Z,958.19
2017-02-23T10:45:27.389Z,958.2
2017-02-23T10:46:38.080Z,958.22
2017-02-23T10:47:48.790Z,958.23
2017-02-23T10:48:59.491Z,958.23
2017-02-23T10:50:09.818Z,958.29
2017-02-23T10:51:20.121Z,958.28
2017-02-23T10:52:30.842Z,958.26
2017-02-23T10:53:41.534Z,958.27
2017-02-23T10:54:52.239Z,958.3
2017-02-23T10:56:02.937Z,958.3
2017-02-23T10:57:12.857Z,958.32
2017-02-23T10:58:23.568Z,958.27
2017-02-23T10:59:34.282Z,958.31
2017-02-23T11:00:44.588Z,958.23
2017-02-23T11:01:55.306Z,958.22
2017-02-23T11:03:06.004Z,958.2
2017-02-23T11:04:16.705Z,958.21
2017-02-23T11:05:27.415Z,958.2
2017-02-23T11:06:38.117Z,958.21
2017-02-23T11:07:48.838Z,958.27
2017-02-23T11:08:59.169Z,958.32
2017-02-23T11:10:09.923Z,958.34
2017-02-23T11:11:20.243Z,958.31
2017-02-23T11:12:30.932Z,958.35
2017-02-23T11:13:41.653Z,958.36
2017-02-23T11:14:52.413Z,958.38
2017-02-23T11:16:02.742Z,958.41
2017-02-23T11:17:13.051Z,958.47
2017-02-23T11:18:23.367Z,958.38
2017-02-23T11:19:34.071Z,958.42
2017-02-23T11:20:44.792Z,958.44
2017-02-23T11:21:55.524Z,958.37
2017-02-23T11:23:06.233Z,958.45
2017-02-23T11:24:16.961Z,958.46
2017-02-23T11:25:26.883Z,958.45
2017-02-23T11:26:37.596Z,958.47
2017-02-23T11:27:47.918Z,958.43
2017-02-23T11:28:58.635Z,958.43
2017-02-23T11:30:09.352Z,958.4
2017-02-23T11:31:19.669Z,958.39
2017-02-23T11:32:30.383Z,958.44
2017-02-23T11:33:41.102Z,958.45
2017-02-23T11:34:51.414Z,958.42
2017-02-23T11:36:02.149Z,958.43
2017-02-23T11:37:12.091Z,958.47
2017-02-23T11:38:22.804Z,958.49
2017-02-23T11:39:33.525Z,958.46
2017-02-23T11:40:44.249Z,958.47
2017-02-23T11:41:54.963Z,958.48
2017-02-23T11:43:05.303Z,958.44
2017-02-23T11:44:15.229Z,958.38
2017-02-23T11:45:25.947Z,958.41
2017-02-23T11:46:36.675Z,958.38
2017-02-23T11:47:47.011Z,958.37
2017-02-23T11:48:57.725Z,958.34
2017-02-23T11:50:08.447Z,958.39
2017-02-23T11:51:18.780Z,958.39
2017-02-23T11:52:29.107Z,958.39
2017-02-23T11:53:39.817Z,958.33
2017-02-23T11:54:50.541Z,958.34
2017-02-23T11:56:00.867Z,958.33
2017-02-23T11:57:11.186Z,958.31
2017-02-23T11:58:21.913Z,958.27
2017-02-23T11:59:32.645Z,958.28
2017-02-23T12:00:43.372Z,958.25
2017-02-23T12:01:54.076Z,958.25
2017-02-23T12:03:04.798Z,958.31
2017-02-23T12:04:14.740Z,958.28
2017-02-23T12:05:25.473Z,958.23
2017-02-23T12:06:35.794Z,958.22
2017-02-23T12:07:46.526Z,958.21
2017-02-23T12:08:57.259Z,958.15
2017-02-23T12:10:08.003Z,958.12
2017-02-23T12:11:18.344Z,958.07
2017-02-23T12:12:29.073Z,958.05
2017-02-23T12:13:39.787Z,958.08
2017-02-23T12:14:50.499Z,958.03
2017-02-23T12:16:01.250Z,958.04
2017-02-23T12:17:11.574Z,958.03
2017-02-23T12:18:22.309Z,958.05
2017-02-23T12:19:33.033Z,958.04
2017-02-23T12:20:43.769Z,958.07
2017-02-23T12:21:54.492Z,958.1
2017-02-23T12:23:05.216Z,958.09
2017-02-23T12:24:15.556Z,958.1
2017-02-23T12:25:26.277Z,958.11
2017-02-23T12:26:37.007Z,958.1
2017-02-23T12:27:47.744Z,958.09
2017-02-23T12:28:57.676Z,958.08
2017-02-23T12:30:08.405Z,958.09
2017-02-23T12:31:19.129Z,958.12
2017-02-23T12:32:29.476Z,958.12
2017-02-23T12:33:40.203Z,958.01
2017-02-23T12:34:50.930Z,958.09
2017-02-23T12:36:01.670Z,958.08
2017-02-23T12:37:11.609Z,958.11
2017-02-23T12:38:21.549Z,959.13
2017-02-23T12:39:31.891Z,960.57
2017-02-23T12:40:41.834Z,959.89
2017-02-23T12:41:52.541Z,959.33
2017-02-23T12:43:02.881Z,958.79
2017-02-23T12:44:13.628Z,958.37
2017-02-23T12:45:24.363Z,958.31
2017-02-23T12:46:34.704Z,958.25
2017-02-23T12:47:45.073Z,958.14
2017-02-23T12:48:55.388Z,958.11
2017-02-23T12:50:06.113Z,958.04
2017-02-23T12:51:16.859Z,958
2017-02-23T12:52:27.174Z,957.93
2017-02-23T12:53:38.207Z,957.94
2017-02-23T12:54:48.928Z,957.91
2017-02-23T12:55:59.706Z,957.86
2017-02-23T12:57:10.039Z,957.86
2017-02-23T12:58:19.990Z,957.86
2017-02-23T12:59:30.735Z,957.87
2017-02-23T13:00:41.465Z,957.88
2017-02-23T13:01:52.183Z,957.95
2017-02-23T13:03:02.905Z,957.88
2017-02-23T13:04:13.243Z,957.87
2017-02-23T13:05:23.971Z,957.9
2017-02-23T13:06:34.724Z,957.91
2017-02-23T13:07:45.455Z,957.87
2017-02-23T13:08:56.193Z,957.8
2017-02-23T13:10:06.913Z,957.81
2017-02-23T13:11:17.232Z,957.81
2017-02-23T13:12:27.553Z,957.75
2017-02-23T13:13:38.281Z,957.7
2017-02-23T13:14:48.998Z,957.74
2017-02-23T13:15:59.712Z,957.66
2017-02-23T13:17:10.434Z,957.69
2017-02-23T13:18:21.153Z,957.72
2017-02-23T13:19:31.890Z,957.67
2017-02-23T13:20:42.607Z,957.65
2017-02-23T13:21:52.546Z,957.69
2017-02-23T13:23:03.261Z,957.77
2017-02-23T13:24:13.583Z,957.68
2017-02-23T13:25:24.292Z,957.6
2017-02-23T13:26:35.017Z,957.57
2017-02-23T13:27:45.368Z,957.65
2017-02-23T13:28:56.101Z,957.66
2017-02-23T13:30:06.838Z,957.7
2017-02-23T13:31:17.157Z,957.81
2017-02-23T13:32:27.486Z,957.84
2017-02-23T13:33:38.233Z,957.83
2017-02-23T13:34:48.575Z,957.84
2017-02-23T13:35:59.307Z,957.94
2017-02-23T13:37:10.035Z,957.78
2017-02-23T13:38:20.749Z,957.6
2017-02-23T13:39:31.482Z,957.66
2017-02-23T13:40:42.201Z,957.76
2017-02-23T13:41:52.920Z,957.67
2017-02-23T13:43:03.643Z,957.41
2017-02-23T13:44:14.349Z,957.32
2017-02-23T13:45:24.694Z,957.32
2017-02-23T13:46:35.417Z,957.37
2017-02-23T13:47:45.738Z,957.49
2017-02-23T13:48:56.074Z,957.78
2017-02-23T13:50:06.796Z,957.58
2017-02-23T13:51:17.140Z,957.52
2017-02-23T13:52:27.845Z,957.41
2017-02-23T13:53:38.582Z,957.32
2017-02-23T13:54:48.899Z,957.53
2017-02-23T13:55:58.841Z,957.52
2017-02-23T13:57:09.551Z,957.43
2017-02-23T13:58:20.261Z,957.4
2017-02-23T13:59:30.974Z,957.34
2017-02-23T14:00:41.686Z,957.34
2017-02-23T14:01:52.002Z,957.3
2017-02-23T14:03:02.725Z,957.24
2017-02-23T14:04:13.432Z,957.21
2017-02-23T14:05:24.176Z,957.38
2017-02-23T14:06:34.489Z,957.44
2017-02-23T14:07:44.800Z,957.37
2017-02-23T14:08:55.509Z,957.44
2017-02-23T14:10:05.810Z,957.38
2017-02-23T14:11:15.726Z,957.56
2017-02-23T14:12:26.434Z,957.6
2017-02-23T14:13:37.144Z,957.26
2017-02-23T14:14:47.854Z,957.08
2017-02-23T14:15:58.176Z,957.07
2017-02-23T14:17:08.925Z,957.06
2017-02-23T14:18:19.645Z,957.16
2017-02-23T14:19:30.361Z,957.27
2017-02-23T14:20:41.081Z,957.13
2017-02-23T14:21:51.798Z,957.09
2017-02-23T14:23:02.531Z,957.14
2017-02-23T14:24:12.850Z,957.1
2017-02-23T14:25:23.572Z,957.1
2017-02-23T14:26:34.285Z,957.09
2017-02-23T14:27:44.980Z,957.05
2017-02-23T14:28:55.680Z,957
2017-02-23T14:30:06.402Z,957.07
2017-02-23T14:31:16.705Z,957.19
2017-02-23T14:32:27.421Z,957.24
2017-02-23T14:33:38.140Z,957.23
2017-02-23T14:34:48.465Z,957.2
2017-02-23T14:35:58.836Z,957.09
2017-02-23T14:37:09.591Z,957.15
2017-02-23T14:38:19.890Z,957.06
2017-02-23T14:39:30.191Z,957.08
2017-02-23T14:40:40.906Z,957.07
2017-02-23T14:41:51.218Z,957.03
2017-02-23T14:43:01.529Z,956.98
2017-02-23T14:44:12.247Z,956.99
2017-02-23T14:45:22.574Z,956.99